Observations for PRATICA DI MARE, Italy (LIRE)

LIRE 200555Z 01004KT CAVOK 11/06 Q1024 RMK FEW FEW220 VIS MIN 9999 WIND THR13 02003KT WIND THR31 /////KT BLU
LIRE 200455Z 02007KT CAVOK 09/06 Q1024 RMK FEW FEW220 VIS MIN 9999 WIND THR13 02004KT WIND THR31 /////KT BLU
LIRE 200355Z 03007KT CAVOK 09/06 Q1024 RMK FEW FEW220 VIS MIN 9999 WIND THR13 03004KT WIND THR31 /////KT BLU
LIRE 200255Z 03005KT CAVOK 09/04 Q1024 RMK SKC VIS MIN 9999 WIND THR13 02003KT WIND THR31 /////KT BLU   
LIRE 200155Z 01004KT CAVOK 10/04 Q1024 RMK SKC VIS MIN 9999 WIND THR13 01004KT WIND THR31/////KT BLU
LIRE 200055Z 11006KT CAVOK 11/04 Q1025 RMK SKC VIS MIN 9999 WIND THR13 12004KT WIND THR31 /////KT BLU   
LIRE 192355Z 02006KT CAVOK 13/05 Q1025 RMK SKC VIS MIN 9999 WIND THR13 04005KT WIND THR31 /////KT BLU   
LIRE 192255Z 03007KT CAVOK 13/06 Q1025 RMK FEW FEW220 VIS MIN 9999 WIND THR13 03005KT WIND THR31 /////KT BLU
LIRE 192155Z 02008KT CAVOK 13/07 Q1026 RMK FEW FEW220 VIS MIN 9999 WIND THR13 02007KT WIND THR31 /////KT BLU
LIRE 192055Z 02008KT 9999 FEW070 13/08 Q1026 RMK FEW VIS MIN 9999 WIND THR13 02008KT WIND THR31 /////KT BLU 
LIRE 191955Z 02004KT 9999 FEW050 14/08 Q1026 RMK SCT VIS MIN 9999 WIND THR13 03003KT WIND THR31 /////KT BLU 
LIRE 191855Z 36004KT 9999 FEW050 14/08 Q1026 RMK FEW VIS MIN 9999 WIND THR13 01003KT WIND THR31 /////KT BLU 
LIRE 191755Z 30004KT CAVOK 16/07 Q1026 RMK FEW FEW200 VIS MIN 9999 WIND THR13 32003KT WIND THR31 /////KT BLU
LIRE 191655Z 27004KT CAVOK 18/05 Q1026 RMK FEW FEW200 VIS MIN 9999 WIND THR13 28003KT WIND THR31 /////KT BLU
LIRE 191555Z 26005KT CAVOK 18/07 Q1026 RMK FEW FEW200 VIS MIN 9999 WIND THR13 27005KT WIND THR31 /////KT BLU
LIRE 191455Z 24006KT 210V270 CAVOK 18/08 Q1026 RMK SCT SCT200 VIS MIN 9999 WIND THR13 26006KT WIND THR31 /////KT BLU
LIRE 191355Z 23006KT CAVOK 18/07 Q1026 RMK SCT SCT200 VIS MIN 9999 WIND THR13 24006KT WIND THR31 /////KT BLU
LIRE 191255Z 23007KT 200V260 CAVOK 19/06 Q1026 RMK SCT SCT200 VIS MIN 9999 WIND THR13 24008KT WIND THR31 /////KT BLU
LIRE 191155Z 23007KT 190V270 CAVOK 19/06 Q1026 RMK SCT SCT200 VIS MIN 9999 WIND THR13 24006KT WIND THR31 /////KT BLU
LIRE 191055Z 22009KT CAVOK 18/04 Q1026 RMK SCT SCT200 VIS MIN 9999 WIND THR13 23007KT WIND THR31 /////KT BLU
LIRE 190955Z 23008KT CAVOK 18/05 Q1026 RMK SCT SCT200 VIS MIN 9999 WIND THR13 23007KT WIND THR31 /////KT BLU
LIRE 190855Z VRB03KT CAVOK 18/06 Q1026 RMK SCT SCT200 VIS MIN 9999 WIND THR13 22003KT WIND THR31 /////KT BLU
LIRE 190755Z VRB02KT 9999 FEW070 17/07 Q1025 RMK SCT SCT200 VIS MIN 9999 WIND THR13 35002KT WIND THR31 /////KT BLU  
LIRE 190655Z 23001KT 9999 BKN070 16/07 Q1025 RMK BKN SCT110 VIS MIN 9999 WIND THR13 20001KT WIND THR31 /////KT BLU  
LIRE 190555Z 29002KT 9999 BKN070 13/10 Q1025 RMK BKN SCT110 VIS MIN 9999 WIND THR13 30001KT WIND THR31 /////KT BLU